Time;durP1;ratioP1;P1;durP2;ratioP2;P2;SDS_P1;SDS_P2;PMS_P1;PMS_P2;Temp;Humidity;BMP_temperature;BMP_pressure;BME280_temperature;BME280_humidity;BME280_pressure;Samples;Min_cycle;Max_cycle;Signal;HPM_P1;HPM_P2
2021/03/05 00:00:17;;;;;;;11.75;3.85;;;6.60;99.90;;;;;;5046851;28;20171;-81
2021/03/05 00:02:44;;;;;;;9.80;4.35;;;6.60;99.90;;;;;;5065206;28;20196;-81
2021/03/05 00:05:10;;;;;;;9.40;3.70;;;6.50;99.90;;;;;;5065093;28;20567;-81
2021/03/05 00:07:37;;;;;;;7.63;4.13;;;6.50;99.90;;;;;;5053579;28;20172;-82
2021/03/05 00:10:08;;;;;;;8.15;3.75;;;6.50;99.90;;;;;;5039923;28;20180;-82
2021/03/05 00:12:35;;;;;;;6.85;3.63;;;6.50;99.90;;;;;;5070470;28;20176;-81
2021/03/05 00:15:01;;;;;;;11.05;4.38;;;6.50;99.90;;;;;;5069916;28;20712;-82
2021/03/05 00:17:27;;;;;;;9.90;3.70;;;6.50;99.90;;;;;;5065013;28;20563;-81
2021/03/05 00:19:53;;;;;;;7.83;3.73;;;6.50;99.90;;;;;;5052331;28;20191;-81
2021/03/05 00:22:19;;;;;;;7.32;3.38;;;6.50;99.90;;;;;;5073226;28;20643;-81
2021/03/05 00:24:45;;;;;;;12.88;4.07;;;6.50;99.90;;;;;;5073365;28;20212;-81
2021/03/05 00:27:10;;;;;;;6.27;3.40;;;6.50;99.90;;;;;;5055245;28;20248;-81
2021/03/05 00:29:36;;;;;;;6.77;3.63;;;6.50;99.90;;;;;;5055074;28;20180;-81
2021/03/05 00:32:02;;;;;;;9.20;3.90;;;6.50;99.90;;;;;;5055258;28;20614;-81
2021/03/05 00:34:28;;;;;;;9.25;4.45;;;6.50;99.90;;;;;;5055036;28;20602;-81
2021/03/05 00:36:55;;;;;;;8.75;4.90;;;6.50;99.90;;;;;;5055216;28;20247;-81
2021/03/05 00:39:21;;;;;;;16.77;5.47;;;6.50;99.90;;;;;;5072845;28;20298;-81
2021/03/05 00:41:46;;;;;;;8.77;4.90;;;6.50;99.90;;;;;;5072887;28;20562;-82
2021/03/05 00:44:12;;;;;;;8.80;4.97;;;6.60;99.90;;;;;;5071034;28;20261;-80
2021/03/05 00:46:38;;;;;;;11.20;5.60;;;6.60;99.90;;;;;;5060947;28;20195;-80
2021/03/05 00:49:03;;;;;;;11.00;5.10;;;6.60;99.90;;;;;;5054083;28;20177;-80
2021/03/05 00:51:30;;;;;;;10.90;5.22;;;6.70;99.90;;;;;;5046495;28;20554;-80
2021/03/05 00:53:57;;;;;;;8.77;5.53;;;6.60;99.90;;;;;;5035018;28;20236;-80
2021/03/05 00:56:23;;;;;;;13.50;5.73;;;6.60;99.90;;;;;;5017678;28;20282;-80
2021/03/05 00:58:49;;;;;;;7.75;5.47;;;6.70;99.90;;;;;;5042047;28;20583;-81
2021/03/05 01:01:21;;;;;;;10.27;5.00;;;6.60;99.90;;;;;;5054980;28;20172;-81
2021/03/05 01:03:47;;;;;;;11.93;5.57;;;6.60;99.90;;;;;;5052769;28;20595;-81
2021/03/05 01:06:15;;;;;;;11.50;4.55;;;6.60;99.90;;;;;;5046988;28;20593;-81
2021/03/05 01:08:47;;;;;;;10.48;3.75;;;6.50;99.90;;;;;;5047447;28;20179;-81
2021/03/05 01:11:12;;;;;;;12.23;4.00;;;6.50;99.90;;;;;;5064100;28;20554;-81
2021/03/05 01:13:38;;;;;;;11.03;4.17;;;6.50;99.90;;;;;;5043576;28;20185;-80
2021/03/05 01:16:07;;;;;;;7.33;3.60;;;6.40;99.90;;;;;;5061705;28;20180;-81
2021/03/05 01:18:32;;;;;;;7.32;3.58;;;6.40;99.90;;;;;;5057077;28;20707;-81
2021/03/05 01:20:58;;;;;;;6.93;3.73;;;6.30;99.90;;;;;;5060982;28;20268;-80
2021/03/05 01:23:24;;;;;;;7.97;4.17;;;6.30;99.90;;;;;;5034681;28;20197;-81
2021/03/05 01:25:50;;;;;;;12.40;3.93;;;6.20;99.90;;;;;;5066156;28;20724;-80
2021/03/05 01:28:16;;;;;;;9.80;4.38;;;6.10;99.90;;;;;;5064056;28;21128;-81
2021/03/05 01:30:41;;;;;;;11.93;3.67;;;6.10;99.90;;;;;;5072471;28;20196;-81
2021/03/05 01:33:07;;;;;;;9.63;4.03;;;6.10;99.90;;;;;;5063722;28;20605;-80
2021/03/05 01:35:33;;;;;;;10.43;4.00;;;6.00;99.90;;;;;;5059632;28;20193;-79
2021/03/05 01:37:59;;;;;;;10.90;4.67;;;6.00;99.90;;;;;;5052063;28;20165;-80
2021/03/05 01:40:30;;;;;;;15.73;3.93;;;6.00;99.90;;;;;;5033969;28;20568;-80
2021/03/05 01:42:56;;;;;;;5.85;3.42;;;5.90;99.90;;;;;;5034057;28;20603;-81
2021/03/05 01:45:26;;;;;;;12.10;4.38;;;5.90;99.90;;;;;;5033982;28;20722;-80
2021/03/05 01:47:58;;;;;;;10.07;3.53;;;5.90;99.90;;;;;;5051603;28;20169;-80
2021/03/05 01:50:28;;;;;;;6.68;3.25;;;5.90;99.90;;;;;;5051817;28;20165;-81
2021/03/05 01:53:00;;;;;;;13.18;3.15;;;5.90;99.90;;;;;;5034059;28;20645;-81
2021/03/05 01:55:27;;;;;;;6.28;3.10;;;5.90;99.90;;;;;;5051675;28;20161;-80
2021/03/05 01:57:54;;;;;;;9.90;3.05;;;5.90;99.90;;;;;;5051421;28;20169;-80
2021/03/05 02:00:26;;;;;;;6.95;2.60;;;6.00;99.90;;;;;;5034075;28;20161;-81
2021/03/05 02:02:53;;;;;;;8.60;3.47;;;6.00;99.90;;;;;;5057051;28;20192;-80
2021/03/05 02:05:19;;;;;;;12.05;3.25;;;6.00;99.90;;;;;;5051647;28;20191;-80
2021/03/05 02:07:45;;;;;;;3.28;1.95;;;6.00;99.90;;;;;;5051512;28;20172;-81
2021/03/05 02:10:12;;;;;;;6.73;2.80;;;5.90;99.90;;;;;;5050948;28;20594;-81
2021/03/05 02:12:38;;;;;;;8.88;3.67;;;6.00;99.90;;;;;;5051532;28;20936;-82
2021/03/05 02:15:05;;;;;;;9.03;3.33;;;6.00;99.90;;;;;;5033963;28;20181;-81
2021/03/05 02:18:08;;;;;;;6.10;2.80;;;6.00;99.90;;;;;;5033903;28;20576;-81
2021/03/05 02:21:06;;;;;;;8.60;2.67;;;6.00;99.90;;;;;;5021518;28;20184;-80
2021/03/05 02:23:39;;;;;;;7.20;3.40;;;6.00;99.90;;;;;;5044375;28;20696;-81
2021/03/05 02:26:10;;;;;;;10.13;3.60;;;6.10;99.90;;;;;;5051287;28;20529;-80
2021/03/05 02:28:48;;;;;;;7.57;3.20;;;6.00;99.90;;;;;;5051072;28;20173;-80
2021/03/05 02:31:42;;;;;;;11.07;6.80;;;6.10;99.90;;;;;;5051182;28;20184;-80
2021/03/05 02:34:15;;;;;;;12.40;3.60;;;6.00;99.90;;;;;;5051418;28;20192;-80
2021/03/05 02:36:44;;;;;;;15.52;3.30;;;6.00;99.90;;;;;;5051379;28;20165;-80
2021/03/05 02:39:37;;;;;;;10.00;4.35;;;6.10;99.90;;;;;;5034707;28;20168;-80
2021/03/05 02:42:07;;;;;;;10.85;4.13;;;6.00;99.90;;;;;;5026337;28;20204;-80
2021/03/05 02:44:40;;;;;;;11.40;4.30;;;6.10;99.90;;;;;;5051317;28;20633;-80
2021/03/05 02:47:09;;;;;;;7.28;3.22;;;6.10;99.90;;;;;;5051274;28;20169;-80
2021/03/05 02:49:39;;;;;;;8.73;3.97;;;6.10;99.90;;;;;;5053568;28;20184;-79
2021/03/05 02:52:11;;;;;;;10.20;4.95;;;6.10;99.90;;;;;;5064880;28;20204;-80
2021/03/05 02:54:38;;;;;;;16.88;5.65;;;6.00;99.90;;;;;;5051591;28;20251;-79
2021/03/05 02:57:07;;;;;;;14.75;5.38;;;6.10;99.90;;;;;;5051285;28;20165;-79
2021/03/05 02:59:36;;;;;;;13.57;6.53;;;6.00;99.90;;;;;;5033087;28;20173;-79
2021/03/05 03:02:02;;;;;;;9.48;5.25;;;6.00;99.90;;;;;;5051048;28;20169;-79
2021/03/05 03:04:29;;;;;;;15.55;6.25;;;6.00;99.90;;;;;;5051061;28;20189;-79
2021/03/05 03:06:56;;;;;;;14.23;6.38;;;6.00;99.90;;;;;;5016743;28;20204;-80
2021/03/05 03:09:24;;;;;;;18.17;6.60;;;6.00;99.90;;;;;;5050868;28;20256;-80
2021/03/05 03:11:50;;;;;;;13.75;6.32;;;6.10;99.90;;;;;;5053856;28;20200;-81
2021/03/05 03:14:16;;;;;;;13.67;6.23;;;6.00;99.90;;;;;;5039206;28;20189;-80
2021/03/05 03:16:44;;;;;;;13.40;5.90;;;6.10;99.90;;;;;;5057429;28;20570;-79
2021/03/05 03:19:16;;;;;;;12.98;6.45;;;6.10;99.90;;;;;;5056577;28;20185;-80
2021/03/05 03:21:42;;;;;;;12.75;6.07;;;6.10;99.90;;;;;;5054231;28;20165;-80
2021/03/05 03:24:09;;;;;;;12.05;6.63;;;6.10;99.90;;;;;;5055552;28;20173;-80
2021/03/05 03:26:39;;;;;;;14.45;6.60;;;6.20;99.90;;;;;;5037433;28;20191;-80
2021/03/05 03:29:09;;;;;;;13.73;7.65;;;6.20;99.90;;;;;;5054807;28;20359;-79
2021/03/05 03:31:38;;;;;;;13.32;7.57;;;6.20;99.90;;;;;;5054621;28;20207;-80
2021/03/05 03:34:05;;;;;;;13.43;7.25;;;6.20;99.90;;;;;;5054685;28;20635;-79
2021/03/05 03:36:38;;;;;;;15.75;7.43;;;6.20;99.90;;;;;;5054510;28;20244;-81
2021/03/05 03:39:09;;;;;;;19.45;9.30;;;6.20;99.90;;;;;;5054112;28;20191;-80
2021/03/05 03:41:36;;;;;;;16.95;9.13;;;6.20;99.90;;;;;;5054072;28;20262;-80
2021/03/05 03:44:05;;;;;;;17.42;10.35;;;6.20;99.90;;;;;;5054140;28;20196;-80
2021/03/05 03:46:32;;;;;;;20.48;12.20;;;6.30;99.90;;;;;;5036274;28;20538;-79
2021/03/05 03:49:03;;;;;;;15.60;9.68;;;6.30;99.90;;;;;;5053794;28;20690;-80
2021/03/05 03:51:33;;;;;;;21.13;10.57;;;6.30;99.90;;;;;;5036089;28;20208;-79
2021/03/05 03:54:00;;;;;;;19.08;11.73;;;6.30;99.90;;;;;;5055954;28;20196;-79
2021/03/05 03:56:31;;;;;;;14.98;9.75;;;6.30;99.90;;;;;;5056505;28;20524;-80
2021/03/05 03:58:57;;;;;;;14.80;10.60;;;6.30;99.90;;;;;;5065623;22;20222;-78
2021/03/05 04:01:24;;;;;;;20.17;11.88;;;6.30;99.90;;;;;;5016251;28;20823;-78
2021/03/05 04:03:52;;;;;;;21.70;14.20;;;6.30;99.90;;;;;;5016369;28;20252;-78
2021/03/05 04:06:24;;;;;;;18.17;11.52;;;6.30;99.90;;;;;;5033722;28;20170;-78
2021/03/05 04:08:52;;;;;;;24.33;13.32;;;6.30;99.90;;;;;;5007359;28;20277;-78
2021/03/05 04:11:19;;;;;;;20.15;15.05;;;6.30;99.90;;;;;;5033568;28;20212;-78
2021/03/05 04:13:46;;;;;;;18.25;13.00;;;6.40;99.90;;;;;;4999714;28;20201;-78
2021/03/05 04:16:12;;;;;;;21.95;15.55;;;6.30;99.90;;;;;;4999660;28;20260;-77
2021/03/05 04:18:40;;;;;;;14.20;11.00;;;6.30;99.90;;;;;;5015391;28;20732;-79
2021/03/05 04:21:10;;;;;;;14.52;11.60;;;6.30;99.90;;;;;;4999451;28;20170;-79
2021/03/05 04:23:36;;;;;;;17.02;11.57;;;6.30;99.90;;;;;;5015671;28;20173;-78
2021/03/05 04:26:03;;;;;;;17.58;12.18;;;6.30;99.90;;;;;;5015787;28;20564;-79
2021/03/05 04:28:29;;;;;;;19.67;12.35;;;6.40;99.90;;;;;;5015318;28;20215;-78
2021/03/05 04:30:56;;;;;;;14.48;11.05;;;6.40;99.90;;;;;;4999155;28;20205;-79
2021/03/05 04:33:22;;;;;;;16.52;11.95;;;6.40;99.90;;;;;;5015720;28;20166;-79
2021/03/05 04:35:47;;;;;;;14.80;11.47;;;6.40;99.90;;;;;;5034814;28;20170;-79
2021/03/05 04:38:14;;;;;;;16.83;13.00;;;6.40;99.90;;;;;;5000054;28;20608;-79
2021/03/05 04:40:39;;;;;;;19.17;14.43;;;6.30;99.90;;;;;;5033292;28;20565;-79
2021/03/05 04:43:05;;;;;;;15.70;12.27;;;6.20;99.90;;;;;;5032850;28;20174;-79
2021/03/05 04:45:31;;;;;;;15.87;13.13;;;6.10;99.90;;;;;;5015372;28;20177;-77
2021/03/05 04:48:00;;;;;;;18.57;12.27;;;6.10;99.90;;;;;;5010815;28;20622;-78
2021/03/05 04:50:26;;;;;;;17.75;13.05;;;6.00;99.90;;;;;;5015137;28;20592;-79
2021/03/05 04:52:52;;;;;;;18.50;13.00;;;6.00;99.90;;;;;;5014864;28;20610;-79
2021/03/05 04:55:18;;;;;;;16.87;13.20;;;6.00;99.90;;;;;;5015127;28;20573;-79
2021/03/05 04:57:44;;;;;;;13.40;10.77;;;5.90;99.90;;;;;;4982210;28;20632;-79
2021/03/05 05:00:10;;;;;;;15.43;13.10;;;5.80;99.90;;;;;;4998700;28;20406;-79
2021/03/05 05:02:39;;;;;;;15.45;13.55;;;5.80;99.90;;;;;;4998312;28;20264;-79
2021/03/05 05:05:06;;;;;;;14.40;12.32;;;5.80;99.90;;;;;;5014787;28;20223;-79
2021/03/05 05:07:31;;;;;;;14.00;11.65;;;5.80;99.90;;;;;;4998390;28;20196;-79
2021/03/05 05:09:57;;;;;;;15.97;11.80;;;5.70;99.90;;;;;;4997913;28;20170;-79
2021/03/05 05:12:23;;;;;;;14.13;11.43;;;5.70;99.90;;;;;;5014911;28;20198;-77
2021/03/05 05:14:49;;;;;;;12.20;10.10;;;5.60;99.90;;;;;;5019706;28;21204;-78
2021/03/05 05:17:14;;;;;;;11.87;10.20;;;5.60;99.90;;;;;;4981834;28;20584;-78
2021/03/05 05:19:40;;;;;;;15.73;13.13;;;5.60;99.90;;;;;;5014261;28;20201;-77
2021/03/05 05:22:09;;;;;;;14.00;12.60;;;5.60;99.90;;;;;;4998126;28;20174;-78
2021/03/05 05:24:37;;;;;;;14.15;12.18;;;5.50;99.90;;;;;;5032267;28;20564;-79
2021/03/05 05:27:04;;;;;;;13.68;10.88;;;5.50;99.90;;;;;;5014469;28;20634;-79
2021/03/05 05:29:30;;;;;;;12.45;11.10;;;5.50;99.90;;;;;;5014081;28;20189;-79
2021/03/05 05:31:56;;;;;;;10.85;9.45;;;5.50;99.90;;;;;;5014276;28;20201;-79
2021/03/05 05:34:22;;;;;;;13.80;10.13;;;5.50;99.90;;;;;;5014441;28;20162;-78
2021/03/05 05:36:48;;;;;;;10.43;9.30;;;5.60;99.90;;;;;;4997691;28;21162;-78
2021/03/05 05:39:13;;;;;;;10.43;9.20;;;5.60;99.90;;;;;;4997547;28;20236;-77
2021/03/05 05:41:40;;;;;;;10.00;8.90;;;5.60;99.90;;;;;;5032038;28;20220;-78
2021/03/05 05:44:07;;;;;;;11.18;9.63;;;5.70;99.90;;;;;;5031652;28;20166;-79
2021/03/05 05:46:34;;;;;;;10.05;9.15;;;5.70;99.90;;;;;;5032008;28;20185;-78
2021/03/05 05:49:00;;;;;;;9.32;8.38;;;5.80;99.90;;;;;;5031896;28;20291;-78
2021/03/05 05:51:33;;;;;;;9.40;8.20;;;5.90;99.90;;;;;;5037233;28;20232;-78
2021/03/05 05:54:10;;;;;;;9.75;8.73;;;5.90;99.90;;;;;;4998047;28;20245;-78
2021/03/05 05:56:40;;;;;;;11.70;9.82;;;6.00;99.90;;;;;;5031991;28;20220;-78
2021/03/05 05:59:06;;;;;;;12.80;10.57;;;6.00;99.90;;;;;;5031251;28;20736;-80
2021/03/05 06:01:34;;;;;;;12.57;10.60;;;6.10;99.90;;;;;;5015284;28;20205;-79
2021/03/05 06:04:04;;;;;;;14.23;12.05;;;6.10;99.90;;;;;;5032037;28;20187;-79
2021/03/05 06:06:30;;;;;;;12.13;9.65;;;6.10;99.90;;;;;;5022888;28;20624;-79
2021/03/05 06:09:01;;;;;;;12.07;10.75;;;6.20;99.90;;;;;;5019521;28;20193;-79
2021/03/05 06:11:35;;;;;;;14.18;10.70;;;6.20;99.90;;;;;;5006008;28;20726;-78
2021/03/05 06:14:06;;;;;;;16.95;13.20;;;6.20;99.90;;;;;;5022337;28;20169;-79
2021/03/05 06:16:32;;;;;;;12.40;10.50;;;6.20;99.90;;;;;;5021051;28;20205;-78
2021/03/05 06:18:59;;;;;;;10.88;9.70;;;6.30;99.90;;;;;;5017579;28;20217;-78
2021/03/05 06:21:36;;;;;;;11.65;10.25;;;6.30;99.90;;;;;;5001634;28;20169;-79
2021/03/05 06:24:04;;;;;;;11.15;9.55;;;6.30;99.90;;;;;;5018301;28;20251;-80
2021/03/05 06:26:45;;;;;;;12.77;10.63;;;6.30;99.90;;;;;;5033517;28;20215;-79
2021/03/05 06:29:11;;;;;;;11.05;9.60;;;6.40;99.90;;;;;;5036900;28;20221;-79
2021/03/05 06:31:36;;;;;;;11.73;10.53;;;6.40;99.90;;;;;;5033323;28;20700;-79
2021/03/05 06:34:03;;;;;;;10.63;9.43;;;6.40;99.90;;;;;;5015941;28;20540;-78
2021/03/05 06:36:30;;;;;;;11.40;10.20;;;6.40;99.90;;;;;;5033015;28;20741;-80
2021/03/05 06:38:56;;;;;;;12.70;10.65;;;6.40;99.90;;;;;;4998835;28;20600;-79
2021/03/05 06:41:26;;;;;;;11.15;9.57;;;6.40;99.90;;;;;;5032646;28;20169;-79
2021/03/05 06:43:57;;;;;;;10.95;9.13;;;6.40;99.90;;;;;;4997909;28;20182;-77
2021/03/05 06:46:38;;;;;;;11.25;10.13;;;6.40;99.90;;;;;;4997456;28;20177;-78
2021/03/05 06:49:12;;;;;;;12.48;8.60;;;6.40;99.90;;;;;;5013123;28;20205;-78
2021/03/05 06:51:50;;;;;;;9.77;8.77;;;6.40;99.90;;;;;;5013991;28;20198;-78
2021/03/05 06:54:15;;;;;;;9.20;7.95;;;6.40;99.90;;;;;;4981458;28;20696;-78
2021/03/05 06:56:46;;;;;;;10.10;8.83;;;6.40;99.90;;;;;;5015641;28;20173;-78
2021/03/05 06:59:17;;;;;;;8.98;8.07;;;6.40;99.90;;;;;;5035040;28;20566;-79
2021/03/05 07:01:55;;;;;;;10.65;9.00;;;6.40;99.90;;;;;;5017790;28;20221;-78
2021/03/05 07:04:23;;;;;;;11.80;8.43;;;6.40;99.90;;;;;;5005220;28;20174;-79
2021/03/05 07:07:07;;;;;;;10.15;8.85;;;6.40;99.90;;;;;;5031393;28;20182;-79
2021/03/05 07:09:34;;;;;;;8.85;8.05;;;6.40;99.90;;;;;;5023179;28;20810;-80
2021/03/05 07:12:06;;;;;;;9.18;8.27;;;6.40;99.90;;;;;;5014129;28;20205;-79
2021/03/05 07:14:33;;;;;;;7.82;6.57;;;6.40;99.90;;;;;;5035255;28;20184;-80
2021/03/05 07:17:00;;;;;;;6.28;5.68;;;6.50;99.90;;;;;;5048870;28;20236;-79
2021/03/05 07:19:31;;;;;;;7.20;6.50;;;6.50;99.90;;;;;;5016209;28;20185;-79
2021/03/05 07:21:58;;;;;;;8.60;7.10;;;6.50;99.90;;;;;;4994411;28;20742;-79
2021/03/05 07:24:26;;;;;;;7.68;5.70;;;6.50;99.90;;;;;;5029589;28;20200;-79
2021/03/05 07:26:54;;;;;;;6.55;5.95;;;6.50;99.90;;;;;;5051676;28;20245;-79
2021/03/05 07:29:25;;;;;;;6.60;5.90;;;6.40;99.90;;;;;;5044800;28;20722;-80
2021/03/05 07:31:59;;;;;;;6.05;5.20;;;6.30;99.90;;;;;;4998954;28;20635;-79
2021/03/05 07:34:27;;;;;;;6.20;5.43;;;6.30;99.90;;;;;;5027098;28;20746;-80
2021/03/05 07:36:56;;;;;;;4.88;4.30;;;6.20;99.90;;;;;;5035262;28;20190;-80
2021/03/05 07:39:32;;;;;;;5.70;5.10;;;6.20;99.90;;;;;;5033079;28;20728;-80
2021/03/05 07:41:59;;;;;;;6.10;4.70;;;6.10;99.90;;;;;;5030070;28;20711;-80
2021/03/05 07:44:25;;;;;;;5.13;4.20;;;6.10;99.90;;;;;;5045246;28;20721;-79
2021/03/05 07:46:52;;;;;;;6.40;4.40;;;6.10;99.90;;;;;;5027432;28;20569;-80
2021/03/05 07:49:25;;;;;;;5.43;4.85;;;6.10;99.90;;;;;;5013778;28;20197;-79
2021/03/05 07:51:54;;;;;;;5.03;3.78;;;6.20;99.90;;;;;;5047703;28;20197;-81
2021/03/05 07:54:39;;;;;;;6.30;4.63;;;6.20;99.90;;;;;;5023201;28;20189;-79
2021/03/05 07:57:28;;;;;;;4.10;3.30;;;6.20;99.90;;;;;;5019176;28;20680;-81
2021/03/05 07:59:56;;;;;;;4.63;3.72;;;6.20;99.90;;;;;;4989052;28;20511;-81
2021/03/05 08:02:23;;;;;;;4.63;4.03;;;6.20;99.90;;;;;;5018854;28;20588;-80
2021/03/05 08:05:04;;;;;;;5.88;3.65;;;6.30;99.90;;;;;;5030593;28;20360;-80
2021/03/05 08:07:33;;;;;;;4.80;3.63;;;6.30;99.90;;;;;;5015504;28;20568;-79
2021/03/05 08:10:00;;;;;;;3.53;2.95;;;6.30;99.90;;;;;;4999413;28;20181;-79
2021/03/05 08:12:45;;;;;;;5.03;4.10;;;6.30;99.90;;;;;;5015350;28;20738;-80
2021/03/05 08:15:10;;;;;;;4.15;3.42;;;6.40;99.90;;;;;;5003273;28;20173;-80
2021/03/05 08:17:44;;;;;;;2.90;2.50;;;6.90;99.90;;;;;;5017727;28;20209;-81
2021/03/05 08:20:30;;;;;;;4.38;3.40;;;7.60;99.90;;;;;;5041698;28;20185;-80
2021/03/05 08:23:06;;;;;;;4.25;3.30;;;8.50;99.90;;;;;;5005360;28;20709;-78
2021/03/05 08:25:38;;;;;;;6.68;3.10;;;9.40;99.90;;;;;;5040381;28;20173;-79
2021/03/05 08:28:06;;;;;;;4.28;2.80;;;10.50;99.90;;;;;;5021025;28;20198;-77
2021/03/05 08:30:35;;;;;;;3.03;2.20;;;11.50;99.90;;;;;;5021154;28;20698;-79
2021/03/05 08:33:07;;;;;;;4.85;2.78;;;12.60;99.90;;;;;;5040757;28;20612;-80
2021/03/05 08:35:37;;;;;;;3.07;2.50;;;13.50;99.90;;;;;;5016918;28;20233;-80
2021/03/05 08:38:15;;;;;;;3.23;2.30;;;14.40;99.90;;;;;;5023342;28;21220;-80
2021/03/05 08:40:50;;;;;;;3.80;2.53;;;15.20;99.90;;;;;;5014443;28;20675;-80
2021/03/05 08:43:26;;;;;;;2.87;1.97;;;16.00;99.90;;;;;;4980749;28;20572;-80
2021/03/05 08:46:07;;;;;;;4.23;2.23;;;16.60;99.90;;;;;;4997170;28;20565;-81
2021/03/05 08:48:44;;;;;;;5.40;2.30;;;17.20;99.90;;;;;;5015657;28;20615;-81
2021/03/05 08:51:21;;;;;;;3.33;2.00;;;17.80;99.90;;;;;;5015518;28;20631;-81
2021/03/05 08:53:56;;;;;;;2.10;1.57;;;18.50;99.90;;;;;;5032648;28;20591;-81
2021/03/05 08:56:26;;;;;;;2.87;2.20;;;19.10;99.90;;;;;;5004286;28;20683;-80
2021/03/05 08:59:06;;;;;;;2.40;1.97;;;19.70;99.90;;;;;;4998277;28;21302;-80
2021/03/05 09:01:39;;;;;;;3.90;2.30;;;20.30;99.90;;;;;;4982352;28;20580;-78
2021/03/05 09:04:20;;;;;;;2.73;2.50;;;20.60;99.90;;;;;;4998074;28;20921;-80
2021/03/05 09:06:50;;;;;;;3.37;2.03;;;21.10;99.90;;;;;;5014646;28;20606;-80
2021/03/05 09:09:23;;;;;;;4.27;2.60;;;21.20;99.90;;;;;;5032032;28;20625;-81
2021/03/05 09:12:08;;;;;;;5.37;2.60;;;21.50;99.90;;;;;;5015025;28;20630;-80
2021/03/05 09:14:34;;;;;;;2.67;2.10;;;21.70;82.40;;;;;;4998076;28;21186;-78
2021/03/05 09:17:02;;;;;;;2.30;2.10;;;21.80;94.70;;;;;;5014996;28;20651;-79
2021/03/05 09:19:42;;;;;;;3.40;2.03;;;22.00;94.10;;;;;;5011532;28;20707;-79
2021/03/05 09:22:18;;;;;;;2.30;1.53;;;22.10;90.20;;;;;;5031745;28;20572;-80
2021/03/05 09:24:59;;;;;;;2.03;1.83;;;22.20;90.40;;;;;;5013909;28;20584;-81
2021/03/05 09:27:32;;;;;;;3.40;2.40;;;22.40;91.20;;;;;;4978579;28;20577;-80
2021/03/05 09:30:10;;;;;;;3.10;1.40;;;22.50;89.00;;;;;;4992799;28;20596;-80
2021/03/05 09:32:52;;;;;;;1.60;1.50;;;22.40;85.90;;;;;;5012673;28;21105;-80
2021/03/05 09:35:22;;;;;;;2.97;1.80;;;22.50;80.80;;;;;;5014462;28;20665;-80
2021/03/05 09:37:48;;;;;;;2.23;2.03;;;22.60;82.30;;;;;;5013371;28;21305;-80
2021/03/05 09:40:14;;;;;;;2.27;1.67;;;22.30;68.00;;;;;;5013847;28;20650;-80
2021/03/05 09:42:53;;;;;;;2.03;1.50;;;22.40;74.40;;;;;;5014159;28;20706;-80
2021/03/05 09:45:52;;;;;;;2.63;1.83;;;22.70;73.20;;;;;;4981629;28;20614;-80
2021/03/05 09:48:31;;;;;;;2.30;1.40;;;22.80;74.30;;;;;;4997357;28;20593;-80
2021/03/05 09:51:02;;;;;;;2.90;2.22;;;23.00;74.00;;;;;;5012690;28;20729;-81
2021/03/05 09:53:34;;;;;;;4.23;2.50;;;22.60;58.10;;;;;;5031740;28;20161;-80
2021/03/05 09:56:07;;;;;;;1.93;1.60;;;23.00;62.10;;;;;;4997186;28;20600;-77
2021/03/05 09:58:34;;;;;;;2.80;1.40;;;22.70;61.70;;;;;;5013840;28;20644;-74
2021/03/05 10:01:01;;;;;;;2.97;1.63;;;22.00;61.60;;;;;;5013387;28;20575;-77
2021/03/05 10:03:27;;;;;;;2.03;1.83;;;21.50;60.30;;;;;;5013761;28;20684;-77
2021/03/05 10:05:53;;;;;;;3.87;1.90;;;20.80;57.60;;;;;;4997280;28;20676;-77
2021/03/05 10:08:26;;;;;;;3.03;2.30;;;20.30;59.20;;;;;;4997114;28;20596;-77
2021/03/05 10:11:01;;;;;;;2.03;1.83;;;20.10;59.70;;;;;;5015772;28;20686;-76
2021/03/05 10:13:52;;;;;;;4.27;1.93;;;20.10;60.00;;;;;;4980963;28;20576;-78
2021/03/05 10:16:22;;;;;;;3.50;2.30;;;20.10;61.20;;;;;;4997733;28;20917;-77
2021/03/05 10:19:10;;;;;;;3.00;1.43;;;20.20;59.90;;;;;;4980988;28;20616;-78
2021/03/05 10:21:40;;;;;;;2.40;1.20;;;20.40;60.90;;;;;;5013305;28;20591;-79
2021/03/05 10:24:08;;;;;;;2.27;1.30;;;20.60;62.90;;;;;;5031065;28;20576;-78
2021/03/05 10:26:34;;;;;;;3.07;1.43;;;20.90;63.90;;;;;;4997303;28;20564;-79
2021/03/05 10:29:04;;;;;;;1.50;1.30;;;21.20;63.20;;;;;;4996968;28;20667;-78
2021/03/05 10:31:46;;;;;;;2.07;1.37;;;21.50;63.60;;;;;;5034731;28;20697;-77
2021/03/05 10:34:38;;;;;;;1.97;1.40;;;21.60;64.00;;;;;;5001815;28;20686;-78
2021/03/05 10:37:04;;;;;;;2.10;1.40;;;21.70;65.20;;;;;;4997119;28;21215;-77
2021/03/05 10:39:34;;;;;;;2.47;1.50;;;21.80;61.90;;;;;;5017346;28;20646;-78
2021/03/05 10:42:02;;;;;;;2.00;1.50;;;21.70;62.10;;;;;;5017313;28;20565;-77
2021/03/05 10:44:29;;;;;;;1.80;1.40;;;21.60;59.70;;;;;;5017827;28;21135;-78
2021/03/05 10:47:03;;;;;;;2.80;1.50;;;21.40;60.90;;;;;;5001703;28;20603;-78
2021/03/05 10:49:30;;;;;;;1.80;1.33;;;21.20;60.40;;;;;;5003239;28;20616;-78
2021/03/05 10:52:00;;;;;;;2.10;1.23;;;21.20;60.90;;;;;;5000440;28;20627;-78
2021/03/05 10:54:27;;;;;;;3.30;1.53;;;21.00;59.20;;;;;;5017618;28;20569;-78
2021/03/05 10:56:53;;;;;;;1.80;1.40;;;20.90;60.00;;;;;;5017343;28;20668;-79
2021/03/05 10:59:20;;;;;;;1.73;1.27;;;21.00;59.80;;;;;;5017022;28;20946;-78
2021/03/05 11:01:47;;;;;;;1.40;1.10;;;20.90;59.10;;;;;;5035139;28;20568;-79
2021/03/05 11:04:16;;;;;;;1.53;1.20;;;20.80;59.60;;;;;;5000993;28;20573;-78
2021/03/05 11:06:49;;;;;;;1.57;1.33;;;20.80;59.50;;;;;;5017021;28;20642;-78
2021/03/05 11:09:19;;;;;;;1.83;1.13;;;20.90;58.50;;;;;;5000271;28;20600;-78
2021/03/05 11:11:46;;;;;;;1.77;1.17;;;20.90;58.30;;;;;;5017359;28;20984;-78
2021/03/05 11:14:12;;;;;;;2.87;1.50;;;20.60;56.90;;;;;;5016955;28;21155;-78
2021/03/05 11:16:38;;;;;;;2.13;1.40;;;20.00;53.80;;;;;;5000646;28;20571;-80
2021/03/05 11:19:05;;;;;;;1.90;1.50;;;19.20;52.70;;;;;;4999937;28;21167;-78
2021/03/05 11:21:32;;;;;;;2.47;1.67;;;18.40;52.40;;;;;;5016881;28;20193;-79
2021/03/05 11:23:58;;;;;;;3.00;1.87;;;17.80;53.60;;;;;;5016883;28;21013;-78
2021/03/05 11:26:24;;;;;;;3.13;1.97;;;17.60;54.30;;;;;;5020740;28;21206;-77
2021/03/05 11:28:51;;;;;;;5.10;2.10;;;17.30;53.70;;;;;;5016610;28;20649;-78
2021/03/05 11:31:18;;;;;;;2.60;2.07;;;17.00;53.70;;;;;;5034570;28;20818;-79
2021/03/05 11:33:47;;;;;;;3.00;2.20;;;16.60;53.80;;;;;;4999964;28;20564;-80
2021/03/05 11:36:16;;;;;;;2.30;1.80;;;16.30;53.50;;;;;;5034010;28;20664;-79
2021/03/05 11:38:43;;;;;;;2.20;1.50;;;16.20;55.10;;;;;;4999403;28;20654;-77
2021/03/05 11:41:10;;;;;;;2.00;1.53;;;16.20;55.90;;;;;;4999651;28;20642;-79
2021/03/05 11:43:46;;;;;;;1.87;1.43;;;16.20;56.10;;;;;;4999346;28;20576;-79
2021/03/05 11:46:13;;;;;;;2.10;1.90;;;16.30;56.10;;;;;;5016469;28;21063;-79
2021/03/05 11:48:39;;;;;;;2.27;1.60;;;16.40;56.30;;;;;;4999124;28;20604;-77
2021/03/05 11:51:05;;;;;;;1.80;1.63;;;16.40;56.20;;;;;;4999777;28;20726;-78
2021/03/05 11:53:31;;;;;;;3.00;1.70;;;16.50;57.00;;;;;;5016186;28;20577;-79
2021/03/05 11:55:59;;;;;;;3.30;1.87;;;16.70;57.00;;;;;;5015921;28;21146;-79
2021/03/05 11:58:25;;;;;;;3.20;1.60;;;16.70;54.60;;;;;;4999240;28;20201;-79
2021/03/05 12:00:51;;;;;;;2.53;1.50;;;16.60;54.90;;;;;;5000078;28;20591;-80
2021/03/05 12:03:17;;;;;;;1.97;1.60;;;16.50;54.80;;;;;;5038089;28;20651;-79
2021/03/05 12:05:53;;;;;;;3.13;1.87;;;16.50;55.30;;;;;;5017580;28;20576;-78
2021/03/05 12:08:20;;;;;;;2.60;2.10;;;16.50;54.50;;;;;;5033037;28;20596;-79
2021/03/05 12:10:46;;;;;;;2.83;2.50;;;16.30;54.40;;;;;;5033175;28;20564;-80
2021/03/05 12:13:12;;;;;;;3.10;2.80;;;16.10;53.70;;;;;;4999120;28;21069;-81
2021/03/05 12:15:39;;;;;;;2.30;1.73;;;15.80;53.70;;;;;;5015643;28;20170;-80
2021/03/05 12:18:09;;;;;;;3.00;2.70;;;15.50;53.00;;;;;;5033073;28;20635;-80
2021/03/05 12:20:35;;;;;;;1.90;1.57;;;15.10;52.40;;;;;;5033228;28;20556;-78
2021/03/05 12:23:01;;;;;;;3.20;2.10;;;14.70;52.80;;;;;;4983323;28;20638;-80
2021/03/05 12:25:29;;;;;;;2.20;1.60;;;14.30;52.00;;;;;;4999707;28;20170;-79
2021/03/05 12:27:55;;;;;;;3.40;1.80;;;13.90;53.00;;;;;;5033449;28;20598;-80
2021/03/05 12:30:21;;;;;;;2.63;2.23;;;13.60;52.90;;;;;;5015536;28;20556;-81
2021/03/05 12:32:49;;;;;;;4.28;2.25;;;13.20;52.30;;;;;;5015731;28;20201;-81
2021/03/05 12:35:18;;;;;;;2.17;1.65;;;13.10;52.80;;;;;;4999638;28;20169;-79
2021/03/05 12:37:47;;;;;;;4.18;2.35;;;13.00;52.50;;;;;;5015440;28;20190;-78
2021/03/05 12:40:13;;;;;;;2.73;2.00;;;13.10;53.90;;;;;;5018150;28;20191;-80
2021/03/05 12:42:41;;;;;;;3.27;2.50;;;13.20;55.70;;;;;;5015500;28;20774;-80
2021/03/05 12:45:08;;;;;;;2.53;2.33;;;13.30;55.80;;;;;;5033085;28;20573;-80
2021/03/05 12:47:35;;;;;;;3.75;2.13;;;13.50;56.80;;;;;;4999039;28;20612;-80
2021/03/05 12:50:02;;;;;;;2.70;2.50;;;13.50;55.70;;;;;;5032776;28;20172;-79
2021/03/05 12:52:28;;;;;;;2.72;2.53;;;13.40;54.70;;;;;;5014988;28;20611;-80
2021/03/05 12:54:54;;;;;;;3.13;2.20;;;13.20;53.40;;;;;;4997694;28;20200;-80
2021/03/05 12:57:19;;;;;;;4.30;2.60;;;12.90;53.20;;;;;;5014572;28;20211;-76
2021/03/05 12:59:45;;;;;;;3.03;1.97;;;12.60;53.00;;;;;;4998382;28;20176;-79